Airport View

Enter AWOS ICAO identifier for current METAR.

ex. KFNL

KMKJ 200015Z AUTO 00000KT 10SM CLR 16/12 A3027 RMK AO2 T01590117

20 Oct 2020 00:17

Frequency: 123.875

Phone: 276-686-6420

Other Area AWOS: KJFZ - KBLF - KHLX - KGEV

TAF KBLF 192328Z 2000/2024 20003KT P6SM SCT080 FM201500 26004KT P6SM SCT200